createdAt,value
2022-08-17T00:00:57.705Z,1010.22
2022-08-17T00:02:32.397Z,1010.15
2022-08-17T00:03:44.139Z,1010.12
2022-08-17T00:05:18.748Z,1010.09
2022-08-17T00:06:23.461Z,1010.02
2022-08-17T00:07:26.549Z,1010.00
2022-08-17T00:09:01.131Z,1009.95
2022-08-17T00:10:10.163Z,1009.93
2022-08-17T00:11:12.940Z,1009.97
2022-08-17T00:13:48.592Z,1010.01
2022-08-17T00:14:53.279Z,1009.97
2022-08-17T00:15:56.723Z,1010.03
2022-08-17T00:17:54.572Z,1010.02
2022-08-17T00:19:54.818Z,1010.08
2022-08-17T00:20:57.780Z,1010.10
2022-08-17T00:23:32.780Z,1010.13
2022-08-17T00:24:41.832Z,1010.13
2022-08-17T00:25:44.747Z,1010.15
2022-08-17T00:27:41.985Z,1010.15
2022-08-17T00:28:48.119Z,1010.18
2022-08-17T00:29:50.903Z,1010.20
2022-08-17T00:31:45.212Z,1010.21
2022-08-17T00:33:58.733Z,1010.23
2022-08-17T00:35:01.489Z,1010.23
2022-08-17T00:36:36.023Z,1010.22
2022-08-17T00:37:39.057Z,1010.25
2022-08-17T00:38:42.017Z,1010.23
2022-08-17T00:40:17.333Z,1010.23
2022-08-17T00:41:42.559Z,1010.23
2022-08-17T00:42:46.019Z,1010.19
2022-08-17T00:44:21.022Z,1010.17
2022-08-17T00:45:33.328Z,1010.18
2022-08-17T00:46:36.363Z,1010.17
2022-08-17T00:48:29.060Z,1010.16
2022-08-17T00:49:33.299Z,1010.18
2022-08-17T00:50:37.375Z,1010.19
2022-08-17T00:52:17.679Z,1010.20
2022-08-17T00:53:20.586Z,1010.21
2022-08-17T00:54:23.428Z,1010.19
2022-08-17T00:56:05.972Z,1010.18
2022-08-17T00:57:08.685Z,1010.17
2022-08-17T00:58:11.511Z,1010.16
2022-08-17T01:00:23.391Z,1010.19
2022-08-17T01:01:33.289Z,1010.19
2022-08-17T01:02:42.629Z,1010.17
2022-08-17T01:04:18.036Z,1010.20
2022-08-17T01:05:20.907Z,1010.18
2022-08-17T01:06:28.882Z,1010.21
2022-08-17T01:08:03.812Z,1010.15
2022-08-17T01:09:09.271Z,1010.19
2022-08-17T01:10:57.608Z,1010.19
2022-08-17T01:12:36.062Z,1010.09
2022-08-17T01:13:46.165Z,1010.10
2022-08-17T01:14:49.019Z,1010.09
2022-08-17T01:16:23.616Z,1010.07
2022-08-17T01:17:26.598Z,1010.11
2022-08-17T01:18:29.558Z,1010.08
2022-08-17T01:20:04.180Z,1010.04
2022-08-17T01:21:07.085Z,1010.01
2022-08-17T01:22:11.100Z,1009.98
2022-08-17T01:23:46.084Z,1009.97
2022-08-17T01:24:48.834Z,1009.94
2022-08-17T01:25:54.763Z,1009.96
2022-08-17T01:27:31.934Z,1009.92
2022-08-17T01:29:04.447Z,1009.93
2022-08-17T01:30:57.852Z,1009.86
2022-08-17T01:32:33.801Z,1009.90
2022-08-17T01:33:36.921Z,1009.89
2022-08-17T01:34:56.445Z,1009.90
2022-08-17T01:36:30.963Z,1009.95
2022-08-17T01:37:33.721Z,1009.93
2022-08-17T01:38:38.571Z,1009.95
2022-08-17T01:40:13.503Z,1009.95
2022-08-17T01:41:16.242Z,1009.94
2022-08-17T01:42:21.430Z,1009.96
2022-08-17T01:43:56.036Z,1009.93
2022-08-17T01:44:58.867Z,1009.89
2022-08-17T01:46:15.250Z,1009.88
2022-08-17T01:47:52.897Z,1009.87
2022-08-17T01:48:55.793Z,1009.88
2022-08-17T01:49:58.545Z,1009.90
2022-08-17T01:51:33.290Z,1009.92
2022-08-17T01:52:36.314Z,1009.94
2022-08-17T01:53:39.339Z,1009.93
2022-08-17T01:55:13.930Z,1009.89
2022-08-17T01:56:20.667Z,1009.92
2022-08-17T01:57:23.393Z,1009.91
2022-08-17T01:58:59.401Z,1009.91
2022-08-17T02:00:23.166Z,1009.91
2022-08-17T02:01:56.996Z,1009.88
2022-08-17T02:03:17.180Z,1009.88
2022-08-17T02:04:58.988Z,1009.87
2022-08-17T02:06:01.869Z,1009.83
2022-08-17T02:08:19.709Z,1009.77
2022-08-17T02:10:52.446Z,1009.69
2022-08-17T02:12:37.376Z,1009.69
2022-08-17T02:13:43.042Z,1009.67
2022-08-17T02:15:27.710Z,1009.71
2022-08-17T02:16:37.502Z,1009.66
2022-08-17T02:17:40.846Z,1009.65
2022-08-17T02:19:23.782Z,1009.68
2022-08-17T02:20:52.533Z,1009.69
2022-08-17T02:21:55.143Z,1009.70
2022-08-17T02:23:29.680Z,1009.71
2022-08-17T02:25:13.224Z,1009.71
2022-08-17T02:26:31.137Z,1009.71
2022-08-17T02:28:05.706Z,1009.66
2022-08-17T02:29:08.414Z,1009.65
2022-08-17T02:31:06.109Z,1009.61
2022-08-17T02:32:40.843Z,1009.62
2022-08-17T02:34:09.924Z,1009.63
2022-08-17T02:35:12.681Z,1009.60
2022-08-17T02:36:51.080Z,1009.60
2022-08-17T02:37:57.624Z,1009.60
2022-08-17T02:39:00.295Z,1009.56
2022-08-17T02:40:50.809Z,1009.57
2022-08-17T02:41:53.898Z,1009.49
2022-08-17T02:42:56.906Z,1009.54
2022-08-17T02:44:51.250Z,1009.54
2022-08-17T02:45:53.879Z,1009.53
2022-08-17T02:46:56.511Z,1009.54
2022-08-17T02:48:42.899Z,1009.57
2022-08-17T02:49:54.270Z,1009.58
2022-08-17T02:50:58.688Z,1009.59
2022-08-17T02:53:08.074Z,1009.59
2022-08-17T02:54:52.014Z,1009.60
2022-08-17T02:55:54.761Z,1009.53
2022-08-17T02:57:29.362Z,1009.53
2022-08-17T02:58:47.092Z,1009.55
2022-08-17T02:59:54.773Z,1009.52
2022-08-17T03:00:23.626Z,1009.52
2022-08-17T03:01:26.779Z,1009.58
2022-08-17T03:02:30.268Z,1009.60
2022-08-17T03:04:04.974Z,1009.65
2022-08-17T03:05:07.669Z,1009.63
2022-08-17T03:06:10.426Z,1009.63
2022-08-17T03:07:45.052Z,1009.63
2022-08-17T03:08:47.816Z,1009.62
2022-08-17T03:09:50.614Z,1009.64
2022-08-17T03:11:25.588Z,1009.65
2022-08-17T03:12:28.396Z,1009.67
2022-08-17T03:13:31.095Z,1009.66
2022-08-17T03:15:12.223Z,1009.64
2022-08-17T03:16:15.188Z,1009.64
2022-08-17T03:17:23.149Z,1009.60
2022-08-17T03:19:10.334Z,1009.61
2022-08-17T03:20:13.090Z,1009.61
2022-08-17T03:21:15.806Z,1009.62
2022-08-17T03:23:36.543Z,1009.61
2022-08-17T03:24:47.478Z,1009.63
2022-08-17T03:25:59.080Z,1009.63
2022-08-17T03:27:55.855Z,1009.66
2022-08-17T03:28:58.710Z,1009.64
2022-08-17T03:30:01.559Z,1009.64
2022-08-17T03:31:42.693Z,1009.65
2022-08-17T03:32:45.418Z,1009.66
2022-08-17T03:33:48.328Z,1009.60
2022-08-17T03:35:24.575Z,1009.63
2022-08-17T03:36:27.427Z,1009.66
2022-08-17T03:37:33.564Z,1009.65
2022-08-17T03:39:31.487Z,1009.67
2022-08-17T03:41:09.559Z,1009.67
2022-08-17T03:42:31.508Z,1009.69
2022-08-17T03:44:07.991Z,1009.69
2022-08-17T03:45:10.814Z,1009.68
2022-08-17T03:46:41.295Z,1009.66
2022-08-17T03:48:15.844Z,1009.67
2022-08-17T03:49:18.865Z,1009.66
2022-08-17T03:50:21.892Z,1009.64
2022-08-17T03:52:00.813Z,1009.66
2022-08-17T03:53:04.295Z,1009.66
2022-08-17T03:54:07.775Z,1009.66
2022-08-17T03:55:47.691Z,1009.66
2022-08-17T03:56:50.492Z,1009.63
2022-08-17T03:57:53.183Z,1009.62
2022-08-17T03:59:33.775Z,1009.57
2022-08-17T04:00:23.410Z,1009.60
2022-08-17T04:01:31.459Z,1009.59
2022-08-17T04:02:34.745Z,1009.66
2022-08-17T04:04:09.680Z,1009.67
2022-08-17T04:05:53.431Z,1009.68
2022-08-17T04:06:56.395Z,1009.67
2022-08-17T04:07:59.529Z,1009.71
2022-08-17T04:09:34.722Z,1009.73
2022-08-17T04:10:44.751Z,1009.71
2022-08-17T04:11:48.327Z,1009.71
2022-08-17T04:13:36.894Z,1009.72
2022-08-17T04:14:53.588Z,1009.72
2022-08-17T04:15:57.599Z,1009.72
2022-08-17T04:17:33.715Z,1009.69
2022-08-17T04:18:39.295Z,1009.65
2022-08-17T04:19:42.401Z,1009.62
2022-08-17T04:21:17.241Z,1009.61
2022-08-17T04:22:39.046Z,1009.66
2022-08-17T04:23:48.536Z,1009.67
2022-08-17T04:25:23.691Z,1009.68
2022-08-17T04:27:05.469Z,1009.69
2022-08-17T04:28:15.607Z,1009.64
2022-08-17T04:30:06.414Z,1009.62
2022-08-17T04:31:09.639Z,1009.65
2022-08-17T04:32:12.593Z,1009.66
2022-08-17T04:34:33.451Z,1009.67
2022-08-17T04:35:37.875Z,1009.67
2022-08-17T04:36:40.955Z,1009.67
2022-08-17T04:38:25.090Z,1009.74
2022-08-17T04:39:28.238Z,1009.73
2022-08-17T04:40:33.182Z,1009.72
2022-08-17T04:42:08.050Z,1009.75
2022-08-17T04:43:12.244Z,1009.75
2022-08-17T04:44:27.151Z,1009.77
2022-08-17T04:46:18.698Z,1009.76
2022-08-17T04:47:24.259Z,1009.73
2022-08-17T04:48:29.818Z,1009.79
2022-08-17T04:50:11.892Z,1009.77
2022-08-17T04:51:14.624Z,1009.73
2022-08-17T04:52:49.195Z,1009.73
2022-08-17T04:54:25.446Z,1009.75
2022-08-17T04:55:28.432Z,1009.72
2022-08-17T04:56:31.322Z,1009.72
2022-08-17T04:58:06.277Z,1009.74
2022-08-17T04:59:09.205Z,1009.77
2022-08-17T05:00:23.374Z,1009.83
2022-08-17T05:01:30.095Z,1009.85
2022-08-17T05:02:33.296Z,1009.89
2022-08-17T05:04:46.109Z,1009.94
2022-08-17T05:05:49.116Z,1009.91
2022-08-17T05:06:52.396Z,1009.91
2022-08-17T05:08:29.274Z,1009.86
2022-08-17T05:09:32.152Z,1009.89
2022-08-17T05:10:35.561Z,1009.90
2022-08-17T05:12:14.795Z,1009.86
2022-08-17T05:13:17.677Z,1009.84
2022-08-17T05:14:20.626Z,1009.84
2022-08-17T05:16:05.457Z,1009.83
2022-08-17T05:17:16.787Z,1009.83
2022-08-17T05:18:19.759Z,1009.75
2022-08-17T05:19:57.808Z,1009.75
2022-08-17T05:21:03.981Z,1009.69
2022-08-17T05:22:06.732Z,1009.69
2022-08-17T05:24:01.927Z,1009.69
2022-08-17T05:25:53.224Z,1009.67
2022-08-17T05:27:24.781Z,1009.66
2022-08-17T05:29:14.191Z,1009.67
2022-08-17T05:30:27.343Z,1009.66
2022-08-17T05:31:30.297Z,1009.65
2022-08-17T05:33:41.439Z,1009.72
2022-08-17T05:34:47.010Z,1009.73
2022-08-17T05:35:50.838Z,1009.72
2022-08-17T05:37:41.286Z,1009.77
2022-08-17T05:38:44.409Z,1009.72
2022-08-17T05:39:47.595Z,1009.72
2022-08-17T05:41:24.919Z,1009.75
2022-08-17T05:42:28.054Z,1009.80
2022-08-17T05:43:30.928Z,1009.74
2022-08-17T05:45:05.720Z,1009.74
2022-08-17T05:46:42.301Z,1009.73
2022-08-17T05:47:45.237Z,1009.78
2022-08-17T05:49:37.368Z,1009.85
2022-08-17T05:50:41.355Z,1009.91
2022-08-17T05:51:44.309Z,1009.93
2022-08-17T05:53:19.170Z,1009.97
2022-08-17T05:54:29.040Z,1010.13
2022-08-17T05:55:31.877Z,1010.19
2022-08-17T05:57:28.361Z,1010.32
2022-08-17T05:58:46.148Z,1010.45
2022-08-17T05:59:49.138Z,1010.48
2022-08-17T06:00:30.390Z,1010.48
2022-08-17T06:01:39.830Z,1010.42
2022-08-17T06:02:47.471Z,1010.42
2022-08-17T06:04:23.331Z,1010.30
2022-08-17T06:05:26.188Z,1010.28
2022-08-17T06:06:37.042Z,1010.24
2022-08-17T06:08:11.774Z,1010.23
2022-08-17T06:09:14.747Z,1010.22
2022-08-17T06:10:26.179Z,1010.21
2022-08-17T06:12:05.213Z,1010.20
2022-08-17T06:13:17.788Z,1010.22
2022-08-17T06:14:20.953Z,1010.23
2022-08-17T06:15:55.631Z,1010.20
2022-08-17T06:17:26.488Z,1010.21
2022-08-17T06:18:30.567Z,1010.13
2022-08-17T06:20:05.616Z,1010.12
2022-08-17T06:21:10.166Z,1010.11
2022-08-17T06:22:22.306Z,1010.10
2022-08-17T06:23:57.312Z,1010.11
2022-08-17T06:25:00.299Z,1010.08
2022-08-17T06:26:08.429Z,1010.07
2022-08-17T06:27:59.622Z,1010.03
2022-08-17T06:29:05.751Z,1010.08
2022-08-17T06:30:16.375Z,1010.06
2022-08-17T06:32:18.605Z,1010.05
2022-08-17T06:33:21.404Z,1010.06
2022-08-17T06:34:24.516Z,1010.09
2022-08-17T06:36:06.192Z,1010.10
2022-08-17T06:37:16.744Z,1010.16
2022-08-17T06:38:44.354Z,1010.12
2022-08-17T06:40:19.505Z,1010.21
2022-08-17T06:41:22.512Z,1010.19
2022-08-17T06:43:18.512Z,1010.23
2022-08-17T06:45:02.914Z,1010.26
2022-08-17T06:46:06.105Z,1010.29
2022-08-17T06:47:09.130Z,1010.25
2022-08-17T06:48:57.518Z,1010.31
2022-08-17T06:50:06.556Z,1010.33
2022-08-17T06:51:09.441Z,1010.42
2022-08-17T06:52:58.834Z,1010.59
2022-08-17T06:54:03.449Z,1010.68
2022-08-17T06:55:06.538Z,1010.62
2022-08-17T06:57:06.399Z,1010.63
2022-08-17T06:58:22.190Z,1010.49
2022-08-17T06:59:54.171Z,1010.39
2022-08-17T07:00:23.630Z,1010.33
2022-08-17T07:01:27.221Z,1010.27
2022-08-17T07:02:59.106Z,1010.34
2022-08-17T07:04:34.321Z,1010.55
2022-08-17T07:05:41.062Z,1010.58
2022-08-17T07:06:49.227Z,1010.55
2022-08-17T07:08:27.811Z,1010.33
2022-08-17T07:09:33.495Z,1010.26
2022-08-17T07:10:36.633Z,1010.31
2022-08-17T07:12:11.470Z,1010.40
2022-08-17T07:13:14.451Z,1010.49
2022-08-17T07:14:22.857Z,1010.59
2022-08-17T07:16:02.773Z,1010.53
2022-08-17T07:17:05.777Z,1010.43
2022-08-17T07:18:34.585Z,1010.42
2022-08-17T07:20:09.491Z,1010.38
2022-08-17T07:21:17.582Z,1010.40
2022-08-17T07:22:24.129Z,1010.39
2022-08-17T07:24:42.121Z,1010.39
2022-08-17T07:25:45.058Z,1010.29
2022-08-17T07:26:48.073Z,1010.26
2022-08-17T07:28:23.178Z,1010.24
2022-08-17T07:29:26.064Z,1010.25
2022-08-17T07:30:28.991Z,1010.25
2022-08-17T07:32:16.929Z,1010.29
2022-08-17T07:33:24.753Z,1010.31
2022-08-17T07:34:29.262Z,1010.34
2022-08-17T07:36:07.968Z,1010.42
2022-08-17T07:37:16.096Z,1010.38
2022-08-17T07:38:37.201Z,1010.39
2022-08-17T07:40:28.297Z,1010.39
2022-08-17T07:41:59.409Z,1010.42
2022-08-17T07:43:02.268Z,1010.41
2022-08-17T07:44:53.127Z,1010.38
2022-08-17T07:45:59.786Z,1010.42
2022-08-17T07:47:02.752Z,1010.41
2022-08-17T07:48:37.962Z,1010.44
2022-08-17T07:49:42.893Z,1010.51
2022-08-17T07:50:49.393Z,1010.49
2022-08-17T07:53:03.308Z,1010.58
2022-08-17T07:54:24.616Z,1010.51
2022-08-17T07:55:27.618Z,1010.49
2022-08-17T07:57:02.294Z,1010.45
2022-08-17T07:58:05.234Z,1010.49
2022-08-17T07:59:08.365Z,1010.50
2022-08-17T08:00:38.273Z,1010.52
2022-08-17T08:02:01.890Z,1010.54
2022-08-17T08:03:15.142Z,1010.49
2022-08-17T08:05:15.729Z,1010.47
2022-08-17T08:06:49.773Z,1010.46
2022-08-17T08:07:52.881Z,1010.49
2022-08-17T08:09:34.104Z,1010.45
2022-08-17T08:10:36.992Z,1010.40
2022-08-17T08:11:49.368Z,1010.44
2022-08-17T08:13:39.936Z,1010.38
2022-08-17T08:14:43.352Z,1010.43
2022-08-17T08:15:54.110Z,1010.48
2022-08-17T08:17:29.455Z,1010.47
2022-08-17T08:19:07.526Z,1010.44
2022-08-17T08:21:02.779Z,1010.49
2022-08-17T08:22:37.857Z,1010.51
2022-08-17T08:23:40.760Z,1010.48
2022-08-17T08:24:43.811Z,1010.51
2022-08-17T08:26:24.612Z,1010.54
2022-08-17T08:27:28.775Z,1010.55
2022-08-17T08:28:31.767Z,1010.55
2022-08-17T08:30:08.805Z,1010.63
2022-08-17T08:31:12.145Z,1010.55
2022-08-17T08:32:15.371Z,1010.54
2022-08-17T08:33:50.634Z,1010.56
2022-08-17T08:35:30.940Z,1010.50
2022-08-17T08:37:42.916Z,1010.52
2022-08-17T08:39:20.055Z,1010.47
2022-08-17T08:40:23.657Z,1010.47
2022-08-17T08:41:26.775Z,1010.49
2022-08-17T08:43:02.356Z,1010.51
2022-08-17T08:44:05.357Z,1010.52
2022-08-17T08:45:47.317Z,1010.48
2022-08-17T08:47:22.437Z,1010.47
2022-08-17T08:49:18.179Z,1010.50
2022-08-17T08:51:25.413Z,1010.48
2022-08-17T08:53:02.300Z,1010.44
2022-08-17T08:54:06.723Z,1010.46
2022-08-17T08:55:19.044Z,1010.46
2022-08-17T08:57:39.511Z,1010.44
2022-08-17T08:58:53.710Z,1010.54
2022-08-17T09:00:24.171Z,1010.58
2022-08-17T09:01:28.720Z,1010.58
2022-08-17T09:02:34.654Z,1010.58
2022-08-17T09:05:16.195Z,1010.60
2022-08-17T09:06:50.865Z,1010.64
2022-08-17T09:07:54.702Z,1010.66
2022-08-17T09:09:32.522Z,1010.67
2022-08-17T09:10:36.189Z,1010.65
2022-08-17T09:12:02.062Z,1010.70
2022-08-17T09:13:38.259Z,1010.68
2022-08-17T09:14:58.332Z,1010.70
2022-08-17T09:16:04.931Z,1010.64
2022-08-17T09:17:40.321Z,1010.67
2022-08-17T09:19:50.316Z,1010.69
2022-08-17T09:21:00.862Z,1010.74
2022-08-17T09:22:45.719Z,1010.74
2022-08-17T09:23:49.333Z,1010.72
2022-08-17T09:24:52.382Z,1010.68
2022-08-17T09:26:27.322Z,1010.70
2022-08-17T09:27:32.591Z,1010.69
2022-08-17T09:28:36.268Z,1010.70
2022-08-17T09:30:11.103Z,1010.72
2022-08-17T09:31:15.771Z,1010.72
2022-08-17T09:32:35.542Z,1010.73
2022-08-17T09:34:10.290Z,1010.70
2022-08-17T09:35:20.581Z,1010.66
2022-08-17T09:36:34.693Z,1010.64
2022-08-17T09:38:09.842Z,1010.62
2022-08-17T09:39:18.629Z,1010.60
2022-08-17T09:40:22.367Z,1010.60
2022-08-17T09:42:00.590Z,1010.60
2022-08-17T09:43:03.532Z,1010.63
2022-08-17T09:44:10.746Z,1010.60
2022-08-17T09:45:58.734Z,1010.57
2022-08-17T09:47:01.762Z,1010.59
2022-08-17T09:48:04.688Z,1010.55
2022-08-17T09:49:42.107Z,1010.60
2022-08-17T09:51:16.794Z,1010.56
2022-08-17T09:52:23.426Z,1010.56
2022-08-17T09:54:09.698Z,1010.61
2022-08-17T09:55:37.438Z,1010.59
2022-08-17T09:56:45.976Z,1010.56
2022-08-17T09:58:54.441Z,1010.59
2022-08-17T09:59:57.414Z,1010.63
2022-08-17T10:00:23.801Z,1010.63
2022-08-17T10:01:27.263Z,1010.61
2022-08-17T10:02:30.960Z,1010.63
2022-08-17T10:04:06.168Z,1010.65
2022-08-17T10:05:15.963Z,1010.68
2022-08-17T10:06:22.228Z,1010.66
2022-08-17T10:07:57.713Z,1010.65
2022-08-17T10:09:00.934Z,1010.65
2022-08-17T10:10:03.793Z,1010.64
2022-08-17T10:11:59.830Z,1010.62
2022-08-17T10:13:04.932Z,1010.64
2022-08-17T10:14:53.515Z,1010.65
2022-08-17T10:16:41.178Z,1010.59
2022-08-17T10:17:44.148Z,1010.67
2022-08-17T10:18:47.637Z,1010.57
2022-08-17T10:20:22.971Z,1010.56
2022-08-17T10:21:25.980Z,1010.58
2022-08-17T10:22:53.109Z,1010.58
2022-08-17T10:24:29.689Z,1010.57
2022-08-17T10:27:02.678Z,1010.52
2022-08-17T10:28:05.892Z,1010.51
2022-08-17T10:30:01.420Z,1010.48
2022-08-17T10:31:41.024Z,1010.46
2022-08-17T10:32:44.160Z,1010.49
2022-08-17T10:34:19.131Z,1010.41
2022-08-17T10:35:32.645Z,1010.41
2022-08-17T10:36:35.642Z,1010.41
2022-08-17T10:38:11.149Z,1010.40
2022-08-17T10:39:21.974Z,1010.43
2022-08-17T10:40:39.511Z,1010.42
2022-08-17T10:42:14.647Z,1010.40
2022-08-17T10:43:36.506Z,1010.40
2022-08-17T10:45:32.224Z,1010.41
2022-08-17T10:48:12.463Z,1010.42
2022-08-17T10:49:15.921Z,1010.45
2022-08-17T10:50:18.944Z,1010.45
2022-08-17T10:51:53.967Z,1010.39
2022-08-17T10:52:56.907Z,1010.40
2022-08-17T10:54:05.949Z,1010.44
2022-08-17T10:55:44.934Z,1010.39
2022-08-17T10:56:47.803Z,1010.34
2022-08-17T10:57:51.047Z,1010.36
2022-08-17T10:59:26.027Z,1010.35
2022-08-17T11:00:27.499Z,1010.33
2022-08-17T11:01:31.235Z,1010.35
2022-08-17T11:02:34.199Z,1010.34
2022-08-17T11:04:09.608Z,1010.30
2022-08-17T11:05:17.035Z,1010.29
2022-08-17T11:06:19.997Z,1010.28
2022-08-17T11:07:54.829Z,1010.30
2022-08-17T11:08:57.731Z,1010.29
2022-08-17T11:10:00.688Z,1010.31
2022-08-17T11:11:40.463Z,1010.32
2022-08-17T11:12:43.365Z,1010.33
2022-08-17T11:13:46.542Z,1010.34
2022-08-17T11:15:21.777Z,1010.37
2022-08-17T11:16:28.273Z,1010.38
2022-08-17T11:17:32.831Z,1010.34
2022-08-17T11:19:07.654Z,1010.38
2022-08-17T11:20:10.746Z,1010.37
2022-08-17T11:21:13.871Z,1010.41
2022-08-17T11:22:48.955Z,1010.45
2022-08-17T11:23:51.845Z,1010.51
2022-08-17T11:24:56.922Z,1010.44
2022-08-17T11:26:32.095Z,1010.45
2022-08-17T11:27:35.018Z,1010.52
2022-08-17T11:28:38.333Z,1010.48
2022-08-17T11:30:17.825Z,1010.44
2022-08-17T11:31:45.002Z,1010.47
2022-08-17T11:33:01.081Z,1010.48
2022-08-17T11:34:39.777Z,1010.40
2022-08-17T11:35:44.116Z,1010.40
2022-08-17T11:36:47.447Z,1010.42
2022-08-17T11:38:28.488Z,1010.41
2022-08-17T11:39:31.885Z,1010.48
2022-08-17T11:40:35.992Z,1010.44
2022-08-17T11:42:10.561Z,1010.59
2022-08-17T11:43:13.269Z,1010.60
2022-08-17T11:44:17.240Z,1010.69
2022-08-17T11:45:52.316Z,1010.77
2022-08-17T11:47:02.946Z,1010.79
2022-08-17T11:48:38.757Z,1010.85
2022-08-17T11:50:13.882Z,1010.83
2022-08-17T11:51:20.606Z,1010.81
2022-08-17T11:52:24.908Z,1010.84
2022-08-17T11:54:39.705Z,1010.83
2022-08-17T11:56:17.874Z,1010.84
2022-08-17T11:57:20.965Z,1010.86
2022-08-17T11:58:56.291Z,1010.86
2022-08-17T11:59:59.306Z,1010.85
2022-08-17T12:00:24.068Z,1010.86
2022-08-17T12:01:27.529Z,1010.84
2022-08-17T12:02:35.566Z,1010.87
2022-08-17T12:04:17.906Z,1010.87
2022-08-17T12:05:23.434Z,1010.88
2022-08-17T12:06:30.483Z,1010.93
2022-08-17T12:08:06.261Z,1010.93
2022-08-17T12:09:09.412Z,1010.93
2022-08-17T12:10:12.737Z,1010.92
2022-08-17T12:12:24.806Z,1010.90
2022-08-17T12:13:38.741Z,1010.96
2022-08-17T12:15:19.919Z,1010.99
2022-08-17T12:16:56.829Z,1010.98
2022-08-17T12:18:26.048Z,1010.99
2022-08-17T12:19:29.108Z,1011.00
2022-08-17T12:21:08.232Z,1011.01
2022-08-17T12:22:12.020Z,1011.02
2022-08-17T12:23:15.352Z,1010.97
2022-08-17T12:24:50.492Z,1010.86
2022-08-17T12:25:53.604Z,1010.86
2022-08-17T12:26:57.511Z,1010.83
2022-08-17T12:29:09.246Z,1010.82
2022-08-17T12:30:36.536Z,1010.85
2022-08-17T12:31:40.134Z,1010.86
2022-08-17T12:33:25.679Z,1010.88
2022-08-17T12:34:31.033Z,1010.94
2022-08-17T12:35:34.069Z,1010.95
2022-08-17T12:37:15.558Z,1010.97
2022-08-17T12:38:43.585Z,1010.95
2022-08-17T12:40:01.641Z,1010.93
2022-08-17T12:41:37.091Z,1010.88
2022-08-17T12:42:48.460Z,1010.88
2022-08-17T12:43:51.659Z,1010.86
2022-08-17T12:45:37.074Z,1010.88
2022-08-17T12:46:40.690Z,1010.90
2022-08-17T12:47:44.933Z,1010.94
2022-08-17T12:49:20.215Z,1010.96
2022-08-17T12:50:41.551Z,1010.99
2022-08-17T12:51:44.621Z,1010.98
2022-08-17T12:53:19.691Z,1010.97
2022-08-17T12:54:22.882Z,1010.96
2022-08-17T12:55:26.283Z,1010.90
2022-08-17T12:57:08.211Z,1010.89
2022-08-17T12:58:19.756Z,1010.83
2022-08-17T12:59:36.206Z,1010.85
2022-08-17T13:00:24.064Z,1010.89
2022-08-17T13:01:33.900Z,1010.94
2022-08-17T13:02:37.316Z,1011.01
2022-08-17T13:04:11.956Z,1011.12
2022-08-17T13:05:18.142Z,1011.17
2022-08-17T13:06:21.327Z,1011.18
2022-08-17T13:07:58.566Z,1011.21
2022-08-17T13:09:03.292Z,1011.22
2022-08-17T13:10:06.266Z,1011.22
2022-08-17T13:11:43.095Z,1011.23
2022-08-17T13:12:46.263Z,1011.27
2022-08-17T13:13:49.454Z,1011.30
2022-08-17T13:15:25.873Z,1011.31
2022-08-17T13:16:35.042Z,1011.32
2022-08-17T13:17:38.137Z,1011.32
2022-08-17T13:19:13.359Z,1011.33
2022-08-17T13:20:37.607Z,1011.31
2022-08-17T13:21:40.626Z,1011.31
2022-08-17T13:23:23.327Z,1011.30
2022-08-17T13:24:48.972Z,1011.34
2022-08-17T13:25:52.025Z,1011.35
2022-08-17T13:27:27.254Z,1011.43
2022-08-17T13:28:47.152Z,1011.43
2022-08-17T13:29:52.971Z,1011.41
2022-08-17T13:31:28.449Z,1011.33
2022-08-17T13:33:04.128Z,1011.33
2022-08-17T13:34:33.595Z,1011.28
2022-08-17T13:37:12.739Z,1011.27
2022-08-17T13:38:19.803Z,1011.28
2022-08-17T13:39:23.091Z,1011.33
2022-08-17T13:40:59.194Z,1011.25
2022-08-17T13:42:07.227Z,1011.24
2022-08-17T13:43:14.459Z,1011.24
2022-08-17T13:44:49.053Z,1011.21
2022-08-17T13:46:23.203Z,1011.14
2022-08-17T13:47:26.375Z,1011.14
2022-08-17T13:49:06.159Z,1011.14
2022-08-17T13:50:09.213Z,1011.14
2022-08-17T13:51:12.410Z,1011.14
2022-08-17T13:52:52.507Z,1011.14
2022-08-17T13:53:55.454Z,1011.14
2022-08-17T13:55:01.290Z,1011.14
2022-08-17T13:56:50.285Z,1011.14
2022-08-17T13:58:05.033Z,1011.14
2022-08-17T13:59:10.611Z,1011.14
2022-08-17T14:00:23.300Z,1011.14
2022-08-17T14:01:26.707Z,1011.14
2022-08-17T14:02:34.459Z,1011.17
2022-08-17T14:04:09.164Z,1011.17
2022-08-17T14:05:12.451Z,1011.17
2022-08-17T14:06:51.896Z,1011.17
2022-08-17T14:08:28.996Z,1011.17
2022-08-17T14:09:36.999Z,1011.17
2022-08-17T14:10:40.328Z,1011.17
2022-08-17T14:12:15.517Z,1011.17
2022-08-17T14:13:18.797Z,1011.17
2022-08-17T14:14:24.189Z,1011.17
2022-08-17T14:16:07.894Z,1011.17
2022-08-17T14:17:13.498Z,1011.17
2022-08-17T14:18:49.827Z,1011.17
2022-08-17T14:20:30.878Z,1011.17
2022-08-17T14:21:34.284Z,1011.17
2022-08-17T14:22:37.486Z,1011.17
2022-08-17T14:24:12.441Z,1011.17
2022-08-17T14:25:19.749Z,1011.17
2022-08-17T14:26:23.321Z,1011.17
2022-08-17T14:28:05.841Z,1011.17
2022-08-17T14:29:20.601Z,1010.94
2022-08-17T14:30:23.553Z,1010.94
2022-08-17T14:32:05.985Z,1010.89
2022-08-17T14:33:09.034Z,1010.87
2022-08-17T14:34:12.274Z,1010.85
2022-08-17T14:35:47.441Z,1010.82
2022-08-17T14:36:59.514Z,1010.83
2022-08-17T14:38:03.126Z,1010.83
2022-08-17T14:39:38.808Z,1010.82
2022-08-17T14:40:42.618Z,1010.78
2022-08-17T14:41:45.610Z,1010.77
2022-08-17T14:43:20.476Z,1010.75
2022-08-17T14:44:23.454Z,1010.73
2022-08-17T14:45:44.364Z,1010.74
2022-08-17T14:47:19.510Z,1010.68
2022-08-17T14:48:22.456Z,1010.68
2022-08-17T14:49:25.532Z,1010.64
2022-08-17T14:51:12.662Z,1010.63
2022-08-17T14:52:15.855Z,1010.66
2022-08-17T14:53:18.889Z,1010.63
2022-08-17T14:54:57.159Z,1010.58
2022-08-17T14:56:00.248Z,1010.55
2022-08-17T14:57:40.135Z,1010.57
2022-08-17T14:59:15.251Z,1010.49
2022-08-17T15:00:24.062Z,1010.52
2022-08-17T15:01:27.114Z,1010.42
2022-08-17T15:02:36.670Z,1010.36
2022-08-17T15:04:11.623Z,1010.34
2022-08-17T15:05:14.741Z,1010.28
2022-08-17T15:06:18.266Z,1010.27
2022-08-17T15:07:53.438Z,1010.24
2022-08-17T15:08:56.635Z,1010.21
2022-08-17T15:10:03.095Z,1010.24
2022-08-17T15:11:40.461Z,1010.29
2022-08-17T15:12:45.555Z,1010.25
2022-08-17T15:14:03.773Z,1010.32
2022-08-17T15:15:38.705Z,1010.27
2022-08-17T15:16:41.749Z,1010.29
2022-08-17T15:17:57.355Z,1010.28
2022-08-17T15:19:33.163Z,1010.29
2022-08-17T15:20:36.345Z,1010.32
2022-08-17T15:21:39.457Z,1010.33
2022-08-17T15:23:15.590Z,1010.30
2022-08-17T15:24:18.585Z,1010.33
2022-08-17T15:25:21.743Z,1010.30
2022-08-17T15:26:57.018Z,1010.31
2022-08-17T15:28:10.189Z,1010.28
2022-08-17T15:29:13.068Z,1010.31
2022-08-17T15:30:47.908Z,1010.34
2022-08-17T15:31:50.980Z,1010.35
2022-08-17T15:33:06.934Z,1010.36
2022-08-17T15:34:41.604Z,1010.39
2022-08-17T15:35:44.738Z,1010.43
2022-08-17T15:36:55.326Z,1010.44
2022-08-17T15:38:30.585Z,1010.49
2022-08-17T15:39:36.958Z,1010.51
2022-08-17T15:40:42.511Z,1010.53
2022-08-17T15:42:17.518Z,1010.52
2022-08-17T15:43:26.522Z,1010.56
2022-08-17T15:44:40.624Z,1010.54
2022-08-17T15:46:15.832Z,1010.55
2022-08-17T15:47:23.860Z,1010.57
2022-08-17T15:48:26.902Z,1010.54
2022-08-17T15:50:06.071Z,1010.54
2022-08-17T15:51:09.074Z,1010.50
2022-08-17T15:52:11.928Z,1010.53
2022-08-17T15:53:46.929Z,1010.57
2022-08-17T15:55:05.515Z,1010.57
2022-08-17T15:56:15.377Z,1010.57
2022-08-17T15:57:50.595Z,1010.57
2022-08-17T15:58:53.876Z,1010.57
2022-08-17T16:00:23.601Z,1010.57
2022-08-17T16:04:26.555Z,1010.57
2022-08-17T16:05:53.027Z,1010.57
2022-08-17T16:07:00.385Z,1010.57
2022-08-17T16:08:04.550Z,1010.57
2022-08-17T16:09:45.144Z,1010.79
2022-08-17T16:10:48.412Z,1010.82
2022-08-17T16:11:59.276Z,1010.85
2022-08-17T16:13:34.589Z,1010.89
2022-08-17T16:14:46.790Z,1010.90
2022-08-17T16:15:56.533Z,1010.90
2022-08-17T16:17:52.206Z,1010.90